sensor_id;sensor_type;location;lat;lon;timestamp;temperature;humidity
13806;DHT22;6974;53.606;9.872;2023-02-04T00:01:29;6.10;99.90
13806;DHT22;6974;53.606;9.872;2023-02-04T00:03:56;6.10;99.90
13806;DHT22;6974;53.606;9.872;2023-02-04T00:06:23;6.00;99.90
13806;DHT22;6974;53.606;9.872;2023-02-04T00:08:50;6.00;99.90
13806;DHT22;6974;53.606;9.872;2023-02-04T00:11:18;6.10;99.90
13806;DHT22;6974;53.606;9.872;2023-02-04T00:13:45;6.10;99.90
13806;DHT22;6974;53.606;9.872;2023-02-04T00:16:12;6.00;99.90
13806;DHT22;6974;53.606;9.872;2023-02-04T00:18:38;6.10;99.90
13806;DHT22;6974;53.606;9.872;2023-02-04T00:21:05;6.10;99.90
13806;DHT22;6974;53.606;9.872;2023-02-04T00:23:32;6.10;99.90
13806;DHT22;6974;53.606;9.872;2023-02-04T00:25:59;6.10;99.90
13806;DHT22;6974;53.606;9.872;2023-02-04T00:28:27;6.00;99.90
13806;DHT22;6974;53.606;9.872;2023-02-04T00:30:54;6.00;99.90
13806;DHT22;6974;53.606;9.872;2023-02-04T00:33:21;6.00;99.90
13806;DHT22;6974;53.606;9.872;2023-02-04T00:35:48;6.00;99.90
13806;DHT22;6974;53.606;9.872;2023-02-04T00:38:15;6.00;99.90
13806;DHT22;6974;53.606;9.872;2023-02-04T00:40:42;6.00;99.90
13806;DHT22;6974;53.606;9.872;2023-02-04T00:43:08;5.90;99.90
13806;DHT22;6974;53.606;9.872;2023-02-04T00:45:37;6.00;99.90
13806;DHT22;6974;53.606;9.872;2023-02-04T00:48:04;6.00;99.90
13806;DHT22;6974;53.606;9.872;2023-02-04T00:50:31;6.00;99.90
13806;DHT22;6974;53.606;9.872;2023-02-04T00:52:59;5.90;99.90
13806;DHT22;6974;53.606;9.872;2023-02-04T00:55:26;5.90;99.90
13806;DHT22;6974;53.606;9.872;2023-02-04T00:57:53;5.80;99.90
13806;DHT22;6974;53.606;9.872;2023-02-04T01:00:20;5.70;99.90
13806;DHT22;6974;53.606;9.872;2023-02-04T01:02:48;5.70;99.90
13806;DHT22;6974;53.606;9.872;2023-02-04T01:05:15;5.80;99.90
13806;DHT22;6974;53.606;9.872;2023-02-04T01:07:42;5.80;99.90
13806;DHT22;6974;53.606;9.872;2023-02-04T01:10:09;5.80;99.90
13806;DHT22;6974;53.606;9.872;2023-02-04T01:12:36;5.80;99.90
13806;DHT22;6974;53.606;9.872;2023-02-04T01:15:04;5.80;99.90
13806;DHT22;6974;53.606;9.872;2023-02-04T01:17:31;5.80;99.90
13806;DHT22;6974;53.606;9.872;2023-02-04T01:19:59;5.70;99.90
13806;DHT22;6974;53.606;9.872;2023-02-04T01:22:26;5.70;99.90
13806;DHT22;6974;53.606;9.872;2023-02-04T01:24:52;5.70;99.90
13806;DHT22;6974;53.606;9.872;2023-02-04T01:27:19;5.70;99.90
13806;DHT22;6974;53.606;9.872;2023-02-04T01:29:46;5.60;99.90
13806;DHT22;6974;53.606;9.872;2023-02-04T01:32:13;5.50;99.90
13806;DHT22;6974;53.606;9.872;2023-02-04T01:34:40;5.50;99.90
13806;DHT22;6974;53.606;9.872;2023-02-04T01:37:08;5.50;99.90
13806;DHT22;6974;53.606;9.872;2023-02-04T01:39:35;5.40;99.90
13806;DHT22;6974;53.606;9.872;2023-02-04T01:42:02;5.30;99.90
13806;DHT22;6974;53.606;9.872;2023-02-04T01:44:30;5.30;99.90
13806;DHT22;6974;53.606;9.872;2023-02-04T01:46:57;5.30;99.90
13806;DHT22;6974;53.606;9.872;2023-02-04T01:49:24;5.20;99.90
13806;DHT22;6974;53.606;9.872;2023-02-04T01:51:51;5.20;99.90
13806;DHT22;6974;53.606;9.872;2023-02-04T01:54:19;5.20;99.90
13806;DHT22;6974;53.606;9.872;2023-02-04T01:56:47;5.10;99.90
13806;DHT22;6974;53.606;9.872;2023-02-04T01:59:17;5.10;99.90
13806;DHT22;6974;53.606;9.872;2023-02-04T02:01:46;5.00;99.90
13806;DHT22;6974;53.606;9.872;2023-02-04T02:04:15;5.00;99.90
13806;DHT22;6974;53.606;9.872;2023-02-04T02:06:46;5.00;99.90
13806;DHT22;6974;53.606;9.872;2023-02-04T02:09:14;5.00;99.90
13806;DHT22;6974;53.606;9.872;2023-02-04T02:11:42;5.00;99.90
13806;DHT22;6974;53.606;9.872;2023-02-04T02:14:10;5.00;99.90
13806;DHT22;6974;53.606;9.872;2023-02-04T02:16:37;4.90;99.90
13806;DHT22;6974;53.606;9.872;2023-02-04T02:19:06;4.90;99.90
13806;DHT22;6974;53.606;9.872;2023-02-04T02:21:38;4.90;99.90
13806;DHT22;6974;53.606;9.872;2023-02-04T02:24:24;4.80;99.90
13806;DHT22;6974;53.606;9.872;2023-02-04T02:26:52;4.80;99.90
13806;DHT22;6974;53.606;9.872;2023-02-04T02:29:19;4.70;99.90
13806;DHT22;6974;53.606;9.872;2023-02-04T02:31:46;4.70;99.90
13806;DHT22;6974;53.606;9.872;2023-02-04T02:34:13;4.70;99.90
13806;DHT22;6974;53.606;9.872;2023-02-04T02:36:40;4.80;99.90
13806;DHT22;6974;53.606;9.872;2023-02-04T02:39:07;4.80;99.90
13806;DHT22;6974;53.606;9.872;2023-02-04T02:41:36;4.90;99.90
13806;DHT22;6974;53.606;9.872;2023-02-04T02:44:03;4.80;99.90
13806;DHT22;6974;53.606;9.872;2023-02-04T02:46:30;4.90;99.90
13806;DHT22;6974;53.606;9.872;2023-02-04T02:48:57;4.90;99.90
13806;DHT22;6974;53.606;9.872;2023-02-04T02:51:24;5.00;99.90
13806;DHT22;6974;53.606;9.872;2023-02-04T02:53:51;5.00;99.90
13806;DHT22;6974;53.606;9.872;2023-02-04T02:56:18;5.00;99.90
13806;DHT22;6974;53.606;9.872;2023-02-04T02:58:46;5.00;99.90
13806;DHT22;6974;53.606;9.872;2023-02-04T03:01:13;5.00;99.90
13806;DHT22;6974;53.606;9.872;2023-02-04T03:03:44;5.00;99.90
13806;DHT22;6974;53.606;9.872;2023-02-04T03:06:13;5.00;99.90
13806;DHT22;6974;53.606;9.872;2023-02-04T03:08:41;5.00;99.90
13806;DHT22;6974;53.606;9.872;2023-02-04T03:11:09;5.00;99.90
13806;DHT22;6974;53.606;9.872;2023-02-04T03:13:36;4.90;99.90
13806;DHT22;6974;53.606;9.872;2023-02-04T03:16:06;4.90;99.90
13806;DHT22;6974;53.606;9.872;2023-02-04T03:18:34;4.90;99.90
13806;DHT22;6974;53.606;9.872;2023-02-04T03:21:02;4.90;99.90
13806;DHT22;6974;53.606;9.872;2023-02-04T03:23:30;4.90;99.90
13806;DHT22;6974;53.606;9.872;2023-02-04T03:25:58;4.90;99.90
13806;DHT22;6974;53.606;9.872;2023-02-04T03:28:25;4.80;99.90
13806;DHT22;6974;53.606;9.872;2023-02-04T03:30:52;4.70;99.90
13806;DHT22;6974;53.606;9.872;2023-02-04T03:33:22;4.70;99.90
13806;DHT22;6974;53.606;9.872;2023-02-04T03:35:49;4.60;99.90
13806;DHT22;6974;53.606;9.872;2023-02-04T03:38:16;4.60;99.90
13806;DHT22;6974;53.606;9.872;2023-02-04T03:40:43;4.60;99.90
13806;DHT22;6974;53.606;9.872;2023-02-04T03:43:10;4.50;99.90
13806;DHT22;6974;53.606;9.872;2023-02-04T03:45:37;4.40;99.90
13806;DHT22;6974;53.606;9.872;2023-02-04T03:48:04;4.40;99.90
13806;DHT22;6974;53.606;9.872;2023-02-04T03:50:32;4.50;99.90
13806;DHT22;6974;53.606;9.872;2023-02-04T03:52:59;4.40;99.90
13806;DHT22;6974;53.606;9.872;2023-02-04T03:55:25;4.30;99.90
13806;DHT22;6974;53.606;9.872;2023-02-04T03:57:52;4.30;99.90
13806;DHT22;6974;53.606;9.872;2023-02-04T04:00:19;4.20;99.90
13806;DHT22;6974;53.606;9.872;2023-02-04T04:02:46;4.20;99.90
13806;DHT22;6974;53.606;9.872;2023-02-04T04:05:13;4.20;99.90
13806;DHT22;6974;53.606;9.872;2023-02-04T04:07:41;4.30;99.90
13806;DHT22;6974;53.606;9.872;2023-02-04T04:10:10;4.20;99.90
13806;DHT22;6974;53.606;9.872;2023-02-04T04:12:37;4.30;99.90
13806;DHT22;6974;53.606;9.872;2023-02-04T04:15:04;4.20;99.90
13806;DHT22;6974;53.606;9.872;2023-02-04T04:17:31;4.30;99.90
13806;DHT22;6974;53.606;9.872;2023-02-04T04:19:58;4.20;99.90
13806;DHT22;6974;53.606;9.872;2023-02-04T04:22:25;4.30;99.90
13806;DHT22;6974;53.606;9.872;2023-02-04T04:24:53;4.40;99.90
13806;DHT22;6974;53.606;9.872;2023-02-04T04:27:20;4.40;99.90
13806;DHT22;6974;53.606;9.872;2023-02-04T04:29:47;4.40;99.90
13806;DHT22;6974;53.606;9.872;2023-02-04T04:32:13;4.40;99.90
13806;DHT22;6974;53.606;9.872;2023-02-04T04:34:40;4.40;99.90
13806;DHT22;6974;53.606;9.872;2023-02-04T04:37:07;4.50;99.90
13806;DHT22;6974;53.606;9.872;2023-02-04T04:39:34;4.40;99.90
13806;DHT22;6974;53.606;9.872;2023-02-04T04:42:02;4.40;99.90
13806;DHT22;6974;53.606;9.872;2023-02-04T04:44:29;4.50;99.90
13806;DHT22;6974;53.606;9.872;2023-02-04T04:46:56;4.40;99.90
13806;DHT22;6974;53.606;9.872;2023-02-04T04:49:23;4.50;99.90
13806;DHT22;6974;53.606;9.872;2023-02-04T04:51:50;4.60;99.90
13806;DHT22;6974;53.606;9.872;2023-02-04T04:54:16;4.50;99.90
13806;DHT22;6974;53.606;9.872;2023-02-04T04:56:43;4.50;99.90
13806;DHT22;6974;53.606;9.872;2023-02-04T04:59:11;4.50;99.90
13806;DHT22;6974;53.606;9.872;2023-02-04T05:01:38;4.60;99.90
13806;DHT22;6974;53.606;9.872;2023-02-04T05:04:05;4.60;99.90
13806;DHT22;6974;53.606;9.872;2023-02-04T05:06:32;4.50;99.90
13806;DHT22;6974;53.606;9.872;2023-02-04T05:09:00;4.50;99.90
13806;DHT22;6974;53.606;9.872;2023-02-04T05:11:26;4.50;99.90
13806;DHT22;6974;53.606;9.872;2023-02-04T05:13:53;4.60;99.90
13806;DHT22;6974;53.606;9.872;2023-02-04T05:16:22;4.60;99.90
13806;DHT22;6974;53.606;9.872;2023-02-04T05:18:48;4.60;99.90
13806;DHT22;6974;53.606;9.872;2023-02-04T05:21:15;4.60;99.90
13806;DHT22;6974;53.606;9.872;2023-02-04T05:23:42;4.60;99.90
13806;DHT22;6974;53.606;9.872;2023-02-04T05:26:09;4.60;99.90
13806;DHT22;6974;53.606;9.872;2023-02-04T05:28:36;4.60;99.90
13806;DHT22;6974;53.606;9.872;2023-02-04T05:31:03;4.70;99.90
13806;DHT22;6974;53.606;9.872;2023-02-04T05:33:31;4.70;99.90
13806;DHT22;6974;53.606;9.872;2023-02-04T05:35:57;4.80;99.90
13806;DHT22;6974;53.606;9.872;2023-02-04T05:38:24;4.70;99.90
13806;DHT22;6974;53.606;9.872;2023-02-04T05:40:51;4.70;99.90
13806;DHT22;6974;53.606;9.872;2023-02-04T05:43:18;4.70;99.90
13806;DHT22;6974;53.606;9.872;2023-02-04T05:45:45;4.80;99.90
13806;DHT22;6974;53.606;9.872;2023-02-04T05:48:11;4.70;99.90
13806;DHT22;6974;53.606;9.872;2023-02-04T05:50:40;4.70;99.90
13806;DHT22;6974;53.606;9.872;2023-02-04T05:53:07;4.70;99.90
13806;DHT22;6974;53.606;9.872;2023-02-04T05:55:34;4.70;99.90
13806;DHT22;6974;53.606;9.872;2023-02-04T05:58:01;4.70;99.90
13806;DHT22;6974;53.606;9.872;2023-02-04T06:00:28;4.70;99.90
13806;DHT22;6974;53.606;9.872;2023-02-04T06:02:54;4.70;99.90
13806;DHT22;6974;53.606;9.872;2023-02-04T06:05:21;4.70;99.90
13806;DHT22;6974;53.606;9.872;2023-02-04T06:07:49;4.70;99.90
13806;DHT22;6974;53.606;9.872;2023-02-04T06:10:16;4.70;99.90
13806;DHT22;6974;53.606;9.872;2023-02-04T06:12:45;4.60;99.90
13806;DHT22;6974;53.606;9.872;2023-02-04T06:15:12;4.70;99.90
13806;DHT22;6974;53.606;9.872;2023-02-04T06:17:39;4.60;99.90
13806;DHT22;6974;53.606;9.872;2023-02-04T06:20:07;4.60;99.90
13806;DHT22;6974;53.606;9.872;2023-02-04T06:22:34;4.50;99.90
13806;DHT22;6974;53.606;9.872;2023-02-04T06:25:03;4.50;99.90
13806;DHT22;6974;53.606;9.872;2023-02-04T06:27:29;4.50;99.90
13806;DHT22;6974;53.606;9.872;2023-02-04T06:29:56;4.50;99.90
13806;DHT22;6974;53.606;9.872;2023-02-04T06:32:23;4.40;99.90
13806;DHT22;6974;53.606;9.872;2023-02-04T06:34:50;4.40;99.90
13806;DHT22;6974;53.606;9.872;2023-02-04T06:37:17;4.30;99.90
13806;DHT22;6974;53.606;9.872;2023-02-04T06:39:43;4.20;99.90
13806;DHT22;6974;53.606;9.872;2023-02-04T06:42:12;4.10;99.90
13806;DHT22;6974;53.606;9.872;2023-02-04T06:44:38;4.10;99.90
13806;DHT22;6974;53.606;9.872;2023-02-04T06:47:06;4.10;99.90
13806;DHT22;6974;53.606;9.872;2023-02-04T06:49:33;4.00;99.90
13806;DHT22;6974;53.606;9.872;2023-02-04T06:51:59;4.00;99.90
13806;DHT22;6974;53.606;9.872;2023-02-04T06:54:26;4.00;99.90
13806;DHT22;6974;53.606;9.872;2023-02-04T06:56:53;4.00;99.90
13806;DHT22;6974;53.606;9.872;2023-02-04T06:59:21;4.00;99.90
13806;DHT22;6974;53.606;9.872;2023-02-04T07:01:49;4.00;99.90
13806;DHT22;6974;53.606;9.872;2023-02-04T07:04:16;4.10;99.90
13806;DHT22;6974;53.606;9.872;2023-02-04T07:06:43;4.10;99.90
13806;DHT22;6974;53.606;9.872;2023-02-04T07:09:10;4.00;99.90
13806;DHT22;6974;53.606;9.872;2023-02-04T07:11:37;4.00;99.90
13806;DHT22;6974;53.606;9.872;2023-02-04T07:14:03;3.90;99.90
13806;DHT22;6974;53.606;9.872;2023-02-04T07:16:32;3.90;99.90
13806;DHT22;6974;53.606;9.872;2023-02-04T07:18:58;3.90;99.90
13806;DHT22;6974;53.606;9.872;2023-02-04T07:21:25;3.90;99.90
13806;DHT22;6974;53.606;9.872;2023-02-04T07:23:52;3.80;99.90
13806;DHT22;6974;53.606;9.872;2023-02-04T07:26:19;3.80;99.90
13806;DHT22;6974;53.606;9.872;2023-02-04T07:28:46;3.80;99.90
13806;DHT22;6974;53.606;9.872;2023-02-04T07:31:13;3.80;99.90
13806;DHT22;6974;53.606;9.872;2023-02-04T07:33:41;3.80;99.90
13806;DHT22;6974;53.606;9.872;2023-02-04T07:36:08;3.90;99.90
13806;DHT22;6974;53.606;9.872;2023-02-04T07:38:35;3.90;99.90
13806;DHT22;6974;53.606;9.872;2023-02-04T07:41:02;4.00;99.90
13806;DHT22;6974;53.606;9.872;2023-02-04T07:43:28;3.90;99.90
13806;DHT22;6974;53.606;9.872;2023-02-04T07:45:55;4.00;99.90
13806;DHT22;6974;53.606;9.872;2023-02-04T07:48:22;3.90;99.90
13806;DHT22;6974;53.606;9.872;2023-02-04T07:50:50;3.90;99.90
13806;DHT22;6974;53.606;9.872;2023-02-04T07:53:17;4.00;99.90
13806;DHT22;6974;53.606;9.872;2023-02-04T07:55:44;4.10;99.90
13806;DHT22;6974;53.606;9.872;2023-02-04T07:58:11;4.00;99.90
13806;DHT22;6974;53.606;9.872;2023-02-04T08:00:38;4.10;99.90
13806;DHT22;6974;53.606;9.872;2023-02-04T08:03:04;4.10;99.90
13806;DHT22;6974;53.606;9.872;2023-02-04T08:05:31;4.10;99.90
13806;DHT22;6974;53.606;9.872;2023-02-04T08:07:59;4.20;99.90
13806;DHT22;6974;53.606;9.872;2023-02-04T08:10:26;4.20;99.90
13806;DHT22;6974;53.606;9.872;2023-02-04T08:12:53;4.20;99.90
13806;DHT22;6974;53.606;9.872;2023-02-04T08:15:20;4.20;99.90
13806;DHT22;6974;53.606;9.872;2023-02-04T08:17:47;4.30;99.90
13806;DHT22;6974;53.606;9.872;2023-02-04T08:20:14;4.40;99.90
13806;DHT22;6974;53.606;9.872;2023-02-04T08:22:42;4.40;99.90
13806;DHT22;6974;53.606;9.872;2023-02-04T08:25:11;4.40;99.90
13806;DHT22;6974;53.606;9.872;2023-02-04T08:27:38;4.40;99.90
13806;DHT22;6974;53.606;9.872;2023-02-04T08:30:06;4.50;99.90
13806;DHT22;6974;53.606;9.872;2023-02-04T08:32:33;4.50;99.90
13806;DHT22;6974;53.606;9.872;2023-02-04T08:35:00;4.60;99.90
13806;DHT22;6974;53.606;9.872;2023-02-04T08:37:27;4.70;99.90
13806;DHT22;6974;53.606;9.872;2023-02-04T08:39:53;4.70;99.90
13806;DHT22;6974;53.606;9.872;2023-02-04T08:42:22;4.70;99.90
13806;DHT22;6974;53.606;9.872;2023-02-04T08:44:49;4.80;99.90
13806;DHT22;6974;53.606;9.872;2023-02-04T08:47:15;4.90;99.90
13806;DHT22;6974;53.606;9.872;2023-02-04T08:49:42;5.00;99.90
13806;DHT22;6974;53.606;9.872;2023-02-04T08:52:09;5.00;99.90
13806;DHT22;6974;53.606;9.872;2023-02-04T08:54:36;5.10;99.90
13806;DHT22;6974;53.606;9.872;2023-02-04T08:57:03;5.10;99.90
13806;DHT22;6974;53.606;9.872;2023-02-04T08:59:31;5.20;99.90
13806;DHT22;6974;53.606;9.872;2023-02-04T09:01:58;5.30;99.90
13806;DHT22;6974;53.606;9.872;2023-02-04T09:04:25;5.30;99.90
13806;DHT22;6974;53.606;9.872;2023-02-04T09:06:52;5.30;99.90
13806;DHT22;6974;53.606;9.872;2023-02-04T09:09:20;5.40;99.90
13806;DHT22;6974;53.606;9.872;2023-02-04T09:11:46;5.50;99.90
13806;DHT22;6974;53.606;9.872;2023-02-04T09:14:13;5.50;99.90
13806;DHT22;6974;53.606;9.872;2023-02-04T09:16:42;5.60;99.90
13806;DHT22;6974;53.606;9.872;2023-02-04T09:19:08;5.70;99.90
13806;DHT22;6974;53.606;9.872;2023-02-04T09:21:37;5.70;99.90
13806;DHT22;6974;53.606;9.872;2023-02-04T09:24:04;5.70;99.90
13806;DHT22;6974;53.606;9.872;2023-02-04T09:26:31;5.70;99.90
13806;DHT22;6974;53.606;9.872;2023-02-04T09:28:58;5.70;99.90
13806;DHT22;6974;53.606;9.872;2023-02-04T09:31:25;5.70;99.90
13806;DHT22;6974;53.606;9.872;2023-02-04T09:33:53;5.80;99.90
13806;DHT22;6974;53.606;9.872;2023-02-04T09:36:20;5.90;99.90
13806;DHT22;6974;53.606;9.872;2023-02-04T09:38:47;6.00;99.90
13806;DHT22;6974;53.606;9.872;2023-02-04T09:41:14;5.90;99.90
13806;DHT22;6974;53.606;9.872;2023-02-04T09:43:43;5.90;99.90
13806;DHT22;6974;53.606;9.872;2023-02-04T09:46:17;5.90;99.90
13806;DHT22;6974;53.606;9.872;2023-02-04T09:48:45;6.00;99.90
13806;DHT22;6974;53.606;9.872;2023-02-04T09:51:15;6.10;99.90
13806;DHT22;6974;53.606;9.872;2023-02-04T09:53:43;6.30;99.90
13806;DHT22;6974;53.606;9.872;2023-02-04T09:56:10;6.30;99.90
13806;DHT22;6974;53.606;9.872;2023-02-04T09:58:39;6.50;99.90
13806;DHT22;6974;53.606;9.872;2023-02-04T10:01:11;6.60;99.90
13806;DHT22;6974;53.606;9.872;2023-02-04T10:03:40;6.70;99.90
13806;DHT22;6974;53.606;9.872;2023-02-04T10:06:13;6.70;99.90
13806;DHT22;6974;53.606;9.872;2023-02-04T10:08:41;6.70;99.90
13806;DHT22;6974;53.606;9.872;2023-02-04T10:11:12;6.80;99.90
13806;DHT22;6974;53.606;9.872;2023-02-04T10:13:42;6.70;99.90
13806;DHT22;6974;53.606;9.872;2023-02-04T10:16:16;6.80;99.90
13806;DHT22;6974;53.606;9.872;2023-02-04T10:18:44;6.80;99.90
13806;DHT22;6974;53.606;9.872;2023-02-04T10:21:16;6.90;99.90
13806;DHT22;6974;53.606;9.872;2023-02-04T10:23:45;7.00;99.90
13806;DHT22;6974;53.606;9.872;2023-02-04T10:26:14;7.10;99.90
13806;DHT22;6974;53.606;9.872;2023-02-04T10:28:42;7.20;99.90
13806;DHT22;6974;53.606;9.872;2023-02-04T10:31:31;7.20;99.90
13806;DHT22;6974;53.606;9.872;2023-02-04T10:34:03;7.20;99.90
13806;DHT22;6974;53.606;9.872;2023-02-04T10:36:31;7.20;99.90
13806;DHT22;6974;53.606;9.872;2023-02-04T10:38:59;7.20;99.90
13806;DHT22;6974;53.606;9.872;2023-02-04T10:41:25;7.20;99.90
13806;DHT22;6974;53.606;9.872;2023-02-04T10:44:01;7.20;99.90
13806;DHT22;6974;53.606;9.872;2023-02-04T10:46:29;7.20;99.90
13806;DHT22;6974;53.606;9.872;2023-02-04T10:48:56;7.10;99.90
13806;DHT22;6974;53.606;9.872;2023-02-04T10:51:23;7.10;99.90
13806;DHT22;6974;53.606;9.872;2023-02-04T10:53:51;7.10;99.90
13806;DHT22;6974;53.606;9.872;2023-02-04T10:56:36;7.10;99.90
13806;DHT22;6974;53.606;9.872;2023-02-04T10:59:03;7.20;99.90
13806;DHT22;6974;53.606;9.872;2023-02-04T11:01:30;7.20;99.90
13806;DHT22;6974;53.606;9.872;2023-02-04T11:03:57;7.20;99.90
13806;DHT22;6974;53.606;9.872;2023-02-04T11:06:24;7.30;99.90
13806;DHT22;6974;53.606;9.872;2023-02-04T11:08:53;7.40;99.90
13806;DHT22;6974;53.606;9.872;2023-02-04T11:11:22;7.40;99.90
13806;DHT22;6974;53.606;9.872;2023-02-04T11:14:00;7.40;99.90
13806;DHT22;6974;53.606;9.872;2023-02-04T11:16:29;7.40;99.90
13806;DHT22;6974;53.606;9.872;2023-02-04T11:18:59;7.50;99.90
13806;DHT22;6974;53.606;9.872;2023-02-04T11:21:27;7.50;99.90
13806;DHT22;6974;53.606;9.872;2023-02-04T11:24:21;7.50;99.90
13806;DHT22;6974;53.606;9.872;2023-02-04T11:26:51;7.50;99.90
13806;DHT22;6974;53.606;9.872;2023-02-04T11:29:28;7.50;99.90
13806;DHT22;6974;53.606;9.872;2023-02-04T11:32:04;7.40;99.90
13806;DHT22;6974;53.606;9.872;2023-02-04T11:34:44;7.40;99.90
13806;DHT22;6974;53.606;9.872;2023-02-04T11:37:16;7.40;99.90
13806;DHT22;6974;53.606;9.872;2023-02-04T11:39:46;7.40;99.90
13806;DHT22;6974;53.606;9.872;2023-02-04T11:42:20;7.50;99.90
13806;DHT22;6974;53.606;9.872;2023-02-04T11:44:50;7.50;99.90
13806;DHT22;6974;53.606;9.872;2023-02-04T11:47:17;7.60;99.90
13806;DHT22;6974;53.606;9.872;2023-02-04T11:49:46;7.60;99.90
13806;DHT22;6974;53.606;9.872;2023-02-04T11:52:18;7.60;99.90
13806;DHT22;6974;53.606;9.872;2023-02-04T11:54:53;7.60;99.90
13806;DHT22;6974;53.606;9.872;2023-02-04T11:57:20;7.60;99.90
13806;DHT22;6974;53.606;9.872;2023-02-04T11:59:47;7.60;99.90
13806;DHT22;6974;53.606;9.872;2023-02-04T12:02:17;7.70;99.90
13806;DHT22;6974;53.606;9.872;2023-02-04T12:04:55;7.70;99.90
13806;DHT22;6974;53.606;9.872;2023-02-04T12:07:27;7.80;99.90
13806;DHT22;6974;53.606;9.872;2023-02-04T12:09:56;7.80;99.90
13806;DHT22;6974;53.606;9.872;2023-02-04T12:12:25;7.80;99.90
13806;DHT22;6974;53.606;9.872;2023-02-04T12:14:57;7.70;99.90
13806;DHT22;6974;53.606;9.872;2023-02-04T12:17:24;7.70;99.90
13806;DHT22;6974;53.606;9.872;2023-02-04T12:19:51;7.70;99.90
13806;DHT22;6974;53.606;9.872;2023-02-04T12:22:18;7.70;99.90
13806;DHT22;6974;53.606;9.872;2023-02-04T12:24:44;7.80;99.90
13806;DHT22;6974;53.606;9.872;2023-02-04T12:27:13;7.90;99.90
13806;DHT22;6974;53.606;9.872;2023-02-04T12:29:39;8.00;99.90
13806;DHT22;6974;53.606;9.872;2023-02-04T12:32:06;8.00;99.90
13806;DHT22;6974;53.606;9.872;2023-02-04T12:34:33;7.90;99.90
13806;DHT22;6974;53.606;9.872;2023-02-04T12:37:00;7.90;99.90
13806;DHT22;6974;53.606;9.872;2023-02-04T12:39:27;7.80;99.90
13806;DHT22;6974;53.606;9.872;2023-02-04T12:41:54;7.70;99.90
13806;DHT22;6974;53.606;9.872;2023-02-04T12:44:22;7.70;99.90
13806;DHT22;6974;53.606;9.872;2023-02-04T12:46:49;7.60;99.90
13806;DHT22;6974;53.606;9.872;2023-02-04T12:49:16;7.60;99.90
13806;DHT22;6974;53.606;9.872;2023-02-04T12:51:43;7.60;99.90
13806;DHT22;6974;53.606;9.872;2023-02-04T12:54:10;7.70;99.90
13806;DHT22;6974;53.606;9.872;2023-02-04T12:56:37;7.70;99.90
13806;DHT22;6974;53.606;9.872;2023-02-04T12:59:03;7.80;99.90
13806;DHT22;6974;53.606;9.872;2023-02-04T13:01:32;8.00;99.90
13806;DHT22;6974;53.606;9.872;2023-02-04T13:03:59;8.10;99.90
13806;DHT22;6974;53.606;9.872;2023-02-04T13:06:25;8.20;99.90
13806;DHT22;6974;53.606;9.872;2023-02-04T13:08:52;8.30;99.90
13806;DHT22;6974;53.606;9.872;2023-02-04T13:11:19;8.20;99.90
13806;DHT22;6974;53.606;9.872;2023-02-04T13:13:46;8.30;99.90
13806;DHT22;6974;53.606;9.872;2023-02-04T13:16:13;8.30;99.90
13806;DHT22;6974;53.606;9.872;2023-02-04T13:18:42;8.30;99.90
13806;DHT22;6974;53.606;9.872;2023-02-04T13:21:09;8.40;99.90
13806;DHT22;6974;53.606;9.872;2023-02-04T13:23:35;8.50;99.90
13806;DHT22;6974;53.606;9.872;2023-02-04T13:26:02;8.50;99.90
13806;DHT22;6974;53.606;9.872;2023-02-04T13:28:29;8.50;99.90
13806;DHT22;6974;53.606;9.872;2023-02-04T13:30:56;8.50;99.90
13806;DHT22;6974;53.606;9.872;2023-02-04T13:33:23;8.50;99.90
13806;DHT22;6974;53.606;9.872;2023-02-04T13:35:51;8.50;99.90
13806;DHT22;6974;53.606;9.872;2023-02-04T13:38:18;8.50;99.90
13806;DHT22;6974;53.606;9.872;2023-02-04T13:40:44;8.50;99.90
13806;DHT22;6974;53.606;9.872;2023-02-04T13:43:11;8.40;99.90
13806;DHT22;6974;53.606;9.872;2023-02-04T13:45:38;8.40;99.90
13806;DHT22;6974;53.606;9.872;2023-02-04T13:48:11;8.40;99.90
13806;DHT22;6974;53.606;9.872;2023-02-04T13:50:38;8.30;99.90
13806;DHT22;6974;53.606;9.872;2023-02-04T13:53:06;8.30;99.90
13806;DHT22;6974;53.606;9.872;2023-02-04T13:55:33;8.20;99.90
13806;DHT22;6974;53.606;9.872;2023-02-04T13:58:00;8.20;99.90
13806;DHT22;6974;53.606;9.872;2023-02-04T14:00:27;8.00;99.90
13806;DHT22;6974;53.606;9.872;2023-02-04T14:02:54;8.00;99.90
13806;DHT22;6974;53.606;9.872;2023-02-04T14:05:22;8.00;99.90
13806;DHT22;6974;53.606;9.872;2023-02-04T14:07:48;8.00;99.90
13806;DHT22;6974;53.606;9.872;2023-02-04T14:10:17;7.90;99.90
13806;DHT22;6974;53.606;9.872;2023-02-04T14:12:44;7.90;99.90
13806;DHT22;6974;53.606;9.872;2023-02-04T14:15:11;7.90;99.90
13806;DHT22;6974;53.606;9.872;2023-02-04T14:17:37;7.90;99.90
13806;DHT22;6974;53.606;9.872;2023-02-04T14:20:05;7.80;99.90
13806;DHT22;6974;53.606;9.872;2023-02-04T14:22:32;7.80;99.90
13806;DHT22;6974;53.606;9.872;2023-02-04T14:24:59;7.80;99.90
13806;DHT22;6974;53.606;9.872;2023-02-04T14:27:27;7.70;99.90
13806;DHT22;6974;53.606;9.872;2023-02-04T14:29:54;7.70;99.90
13806;DHT22;6974;53.606;9.872;2023-02-04T14:32:21;7.60;99.90
13806;DHT22;6974;53.606;9.872;2023-02-04T14:34:47;7.50;99.90
13806;DHT22;6974;53.606;9.872;2023-02-04T14:37:14;7.50;99.90
13806;DHT22;6974;53.606;9.872;2023-02-04T14:39:41;7.40;99.90
13806;DHT22;6974;53.606;9.872;2023-02-04T14:42:08;7.40;99.90
13806;DHT22;6974;53.606;9.872;2023-02-04T14:44:36;7.40;99.90
13806;DHT22;6974;53.606;9.872;2023-02-04T14:47:03;7.30;99.90
13806;DHT22;6974;53.606;9.872;2023-02-04T14:49:30;7.20;99.90
13806;DHT22;6974;53.606;9.872;2023-02-04T14:51:57;7.20;99.90
13806;DHT22;6974;53.606;9.872;2023-02-04T14:54:24;7.10;99.90
13806;DHT22;6974;53.606;9.872;2023-02-04T14:56:51;7.00;99.90
13806;DHT22;6974;53.606;9.872;2023-02-04T14:59:17;7.00;99.90
13806;DHT22;6974;53.606;9.872;2023-02-04T15:01:46;7.00;99.90
13806;DHT22;6974;53.606;9.872;2023-02-04T15:04:13;7.00;99.90
13806;DHT22;6974;53.606;9.872;2023-02-04T15:06:40;7.00;99.90
13806;DHT22;6974;53.606;9.872;2023-02-04T15:09:07;7.00;99.90
13806;DHT22;6974;53.606;9.872;2023-02-04T15:11:34;7.00;99.90
13806;DHT22;6974;53.606;9.872;2023-02-04T15:14:01;6.90;99.90
13806;DHT22;6974;53.606;9.872;2023-02-04T15:16:27;6.90;99.90
13806;DHT22;6974;53.606;9.872;2023-02-04T15:18:56;6.90;99.90
13806;DHT22;6974;53.606;9.872;2023-02-04T15:21:23;6.90;99.90
13806;DHT22;6974;53.606;9.872;2023-02-04T15:23:49;6.90;99.90
13806;DHT22;6974;53.606;9.872;2023-02-04T15:26:16;6.80;99.90
13806;DHT22;6974;53.606;9.872;2023-02-04T15:28:43;6.80;99.90
13806;DHT22;6974;53.606;9.872;2023-02-04T15:31:10;6.80;99.90
13806;DHT22;6974;53.606;9.872;2023-02-04T15:33:37;6.80;99.90
13806;DHT22;6974;53.606;9.872;2023-02-04T15:36:06;6.80;99.90
13806;DHT22;6974;53.606;9.872;2023-02-04T15:38:33;6.70;99.90
13806;DHT22;6974;53.606;9.872;2023-02-04T15:41:00;6.70;99.90
13806;DHT22;6974;53.606;9.872;2023-02-04T15:43:28;6.60;99.90
13806;DHT22;6974;53.606;9.872;2023-02-04T15:45:54;6.60;99.90
13806;DHT22;6974;53.606;9.872;2023-02-04T15:48:22;6.60;99.90
13806;DHT22;6974;53.606;9.872;2023-02-04T15:50:49;6.60;99.90
13806;DHT22;6974;53.606;9.872;2023-02-04T15:53:17;6.60;99.90
13806;DHT22;6974;53.606;9.872;2023-02-04T15:55:44;6.50;99.90
13806;DHT22;6974;53.606;9.872;2023-02-04T15:58:18;6.50;99.90
13806;DHT22;6974;53.606;9.872;2023-02-04T16:00:45;6.50;99.90
13806;DHT22;6974;53.606;9.872;2023-02-04T16:03:12;6.50;99.90
13806;DHT22;6974;53.606;9.872;2023-02-04T16:05:39;6.50;99.90